Bei Facebook empfehlenBei Twitter postenGoogle plusPinterest

Das Wetter im Erzgebirge am 21.05.2015

Wetter und Klima am 21.05.2015 Holzhau im Erzgebirge (630m ü.NN)
Letzte gemessene Temperatur und Uhrzeit der Messung23:45:00 Uhr2.10 °C
Temperatur (Maximum / Höchstwert) und Uhrzeit der Messung14:00:00 Uhr14.50 °C
Temperatur (Minimum / Tiefstwert) und Uhrzeit der Messung23:45:002.10 °C
Errechneter Absolutwert der Temperaturschwankungen zwischen Tmin und Tmax des Tages12.40 K
Errechnete Tagesmitteltemperatur9.31875 °C
Gesamt - Niederschlag des Tages (in flüssiger Form)0.00 Liter / m²
Luftdruck (Maximum / Höchstwert) und Zeitpunkt der Messung23:30:00 Uhr1023.50 hPa
Luftdruck (Minimum / Tiefstwert) und Zeitpunkt der Messung00:00:00 Uhr1015.20 hPa
Errechneter Absolutwert der Luftdruckschwankungen des Tages8.30 hPa
Höchste gemessene Windgeschwindigkeit und Uhrzeit der Messung11:15:00 Uhr4.68 km/h
Errechnete Windhäufigkeit in Relation zu den Messwerten des Tages1.04167 %
Niedrigste Windkühle (Windchill) und Zeitpunkt der Messung23:45:00 Uhr2.10 °C
Taupunkt (Maximum / Höchstwert) und Uhrzeit der Messung10:00:00 Uhr7.40 °C
Taupunkt (Minimum / Tiefstwert) und Uhrzeit der Messung23:45:00-0.50 °C
Anzahl der automatisch eingelesenen Messwerte 96

Detaillierte Wetter- und Klima- Messwerte für den 21.05.2015 in Holzhau im Erzgebirge (630m ü.NN)
ZeitTemperaturLuftdruckRel. LuftfeuchteWindWindrichtungWindchillTaupunktNiederschlag l/m²
23:45:002.10 °C1023.40 hPa83.00 %-0.50 °C 
23:30:002.50 °C1023.50 hPa83.00 %-0.10 °C 
23:15:002.80 °C1023.30 hPa82.00 %0.00 °C 
23:00:003.10 °C1023.10 hPa81.00 %0.20 °C 
22:45:003.50 °C1023.20 hPa80.00 %0.40 °C 
22:30:003.90 °C1023.10 hPa79.00 %0.60 °C 
22:15:004.50 °C1022.90 hPa77.00 %0.80 °C 
22:00:005.20 °C1022.80 hPa76.00 %1.30 °C 
21:45:005.80 °C1022.60 hPa74.00 %1.50 °C 
21:30:006.60 °C1022.50 hPa71.00 %1.70 °C 
21:15:007.80 °C1022.50 hPa68.00 %2.30 °C 
21:00:008.90 °C1022.10 hPa66.00 %2.90 °C 
20:45:009.80 °C1021.90 hPa62.00 %2.90 °C 
20:30:0010.60 °C1021.70 hPa61.00 %3.40 °C 
20:15:0011.40 °C1021.60 hPa59.00 %3.70 °C 
20:00:0012.10 °C1021.60 hPa58.00 %4.10 °C 
19:45:0012.90 °C1021.40 hPa57.00 %4.60 °C 
19:30:0013.10 °C1021.20 hPa58.00 %5.00 °C 
19:15:0012.90 °C1021.10 hPa57.00 %4.60 °C 
19:00:0013.40 °C1021.30 hPa57.00 %5.10 °C 
18:45:0013.50 °C1021.10 hPa58.00 %5.40 °C 
18:30:0013.10 °C1021.10 hPa63.00 %6.20 °C 
18:15:0012.50 °C1020.90 hPa63.00 %5.70 °C 
18:00:0012.00 °C1021.00 hPa65.00 %5.60 °C 
17:45:0011.60 °C1020.80 hPa63.00 %4.80 °C 
17:30:0012.40 °C1021.00 hPa60.00 %4.90 °C 
17:15:0013.40 °C1020.80 hPa59.00 %5.60 °C 
17:00:0012.80 °C1020.90 hPa63.00 %5.90 °C 
16:45:0011.80 °C1020.90 hPa64.00 %5.20 °C 
16:30:0011.80 °C1020.80 hPa63.00 %5.00 °C 
16:15:0012.90 °C1020.70 hPa58.00 %4.80 °C 
16:00:0013.90 °C1020.50 hPa56.00 %5.30 °C 
15:45:0013.90 °C1020.50 hPa58.00 %5.80 °C 
15:30:0013.90 °C1020.50 hPa58.00 %5.80 °C 
15:15:0014.10 °C1020.50 hPa56.00 %5.50 °C 
15:00:0014.40 °C1020.40 hPa56.00 %5.70 °C 
14:45:0014.20 °C1020.50 hPa57.00 %5.80 °C 
14:30:0014.30 °C1020.30 hPa57.00 %5.90 °C 
14:15:0014.10 °C1020.30 hPa56.00 %5.50 °C 
14:00:0014.50 °C1020.20 hPa57.00 %6.10 °C 
13:45:0014.50 °C1020.30 hPa59.00 %6.60 °C 
13:30:0013.80 °C1020.30 hPa61.00 %6.40 °C 
13:15:0012.60 °C1020.30 hPa60.00 %5.10 °C 
13:00:0013.80 °C1020.10 hPa58.00 %5.70 °C 
12:45:0014.40 °C1020.20 hPa60.00 %6.70 °C 
12:30:0013.20 °C1020.20 hPa62.00 %6.10 °C 
12:15:0012.80 °C1020.00 hPa62.00 %5.70 °C 
12:00:0013.80 °C1019.80 hPa61.00 %6.40 °C 
11:45:0013.90 °C1019.80 hPa61.00 %6.50 °C 
11:30:0014.20 °C1019.60 hPa60.00 %6.60 °C 
11:15:0014.10 °C1019.70 hPa61.00 %4.68 km/hWNW14.10 °C6.70 °C 
11:00:0013.50 °C1019.60 hPa64.00 %6.80 °C 
10:45:0012.80 °C1019.40 hPa65.00 %6.40 °C 
10:30:0012.40 °C1019.50 hPa69.00 %6.90 °C 
10:15:0012.40 °C1019.30 hPa70.00 %7.10 °C 
10:00:0011.90 °C1019.10 hPa74.00 %7.40 °C 
09:45:0010.60 °C1019.20 hPa78.00 %6.90 °C 
09:30:009.60 °C1019.20 hPa81.00 %6.50 °C 
09:15:009.30 °C1019.10 hPa84.00 %6.70 °C 
09:00:008.60 °C1019.00 hPa87.00 %6.60 °C 
08:45:008.20 °C1019.00 hPa88.00 %6.30 °C 
08:30:007.80 °C1018.80 hPa89.00 %6.10 °C 
08:15:007.20 °C1018.40 hPa89.00 %5.50 °C 
08:00:007.00 °C1018.50 hPa90.00 %5.50 °C 
07:45:006.90 °C1018.00 hPa90.00 %5.40 °C 
07:30:006.90 °C1017.90 hPa90.00 %5.40 °C 
07:15:006.80 °C1017.80 hPa90.00 %5.30 °C 
07:00:006.80 °C1017.70 hPa90.00 %5.30 °C 
06:45:006.60 °C1017.40 hPa90.00 %5.10 °C 
06:30:006.40 °C1017.30 hPa89.00 %4.70 °C 
06:15:006.20 °C1017.20 hPa89.00 %4.50 °C 
06:00:006.10 °C1016.90 hPa89.00 %4.40 °C 
05:45:005.90 °C1016.80 hPa89.00 %4.20 °C 
05:30:006.10 °C1016.70 hPa89.00 %4.40 °C 
05:15:006.10 °C1016.60 hPa89.00 %4.40 °C 
05:00:006.20 °C1016.80 hPa89.00 %4.50 °C 
04:45:006.20 °C1016.70 hPa89.00 %4.50 °C 
04:30:006.10 °C1016.60 hPa88.00 %4.30 °C 
04:15:006.10 °C1016.60 hPa88.00 %4.30 °C 
04:00:006.10 °C1016.50 hPa88.00 %4.30 °C 
03:45:006.10 °C1016.50 hPa88.00 %4.30 °C 
03:30:006.10 °C1016.50 hPa88.00 %4.30 °C 
03:15:006.00 °C1016.40 hPa88.00 %4.20 °C 
03:00:005.90 °C1016.20 hPa87.00 %3.90 °C 
02:45:005.80 °C1015.90 hPa87.00 %3.80 °C 
02:30:005.80 °C1015.80 hPa87.00 %3.80 °C 
02:15:005.80 °C1015.80 hPa87.00 %3.80 °C 
02:00:005.80 °C1015.60 hPa86.00 %3.60 °C 
01:45:005.80 °C1015.40 hPa86.00 %3.60 °C 
01:30:005.80 °C1015.50 hPa86.00 %3.60 °C 
01:15:005.80 °C1015.70 hPa86.00 %3.60 °C 
01:00:005.60 °C1015.50 hPa85.00 %3.30 °C 
00:45:005.60 °C1015.60 hPa85.00 %3.30 °C 
00:30:005.60 °C1015.60 hPa85.00 %3.30 °C 
00:15:005.60 °C1015.40 hPa85.00 %3.30 °C 
00:00:005.60 °C1015.20 hPa84.00 %3.10 °C 

Permanenter Link zu dieser Seite: Wetter im Erzgebirge am 21.05.2015
Performance-Info: Die Erstellung der Seite / Statistik(en) / Tabelle(n) erforderte 5 Datenbankserver-Abfrage(n) und dauerte 95 Millisekunden. (Dieser Messwert ist von der Gesamt-Auslastung des Servers abhängig.)
Erzgebirge - Wetter | Erzgebirge - Wetter (Mobilgeräte) | Komplette Klimadatenbank